Time;durP1;ratioP1;P1;durP2;ratioP2;P2;SDS_P1;SDS_P2;PMS_P1;PMS_P2;Temp;Humidity;BMP_temperature;BMP_pressure;BME280_temperature;BME280_humidity;BME280_pressure;Samples;Min_cycle;Max_cycle;Signal;HPM_P1;HPM_P2
2022/04/11 00:00:33;;;;;;;0.50;0.45;;;16.10;44.30;15.30;101593.00;;;;6210587;23;20442;-68
2022/04/11 00:03:19;;;;;;;1.25;0.80;;;16.10;44.30;15.30;101583.00;;;;6208509;23;20013;-68
2022/04/11 00:06:05;;;;;;;1.40;0.68;;;16.10;44.30;15.30;101587.00;;;;6211117;23;20044;-68
2022/04/11 00:08:51;;;;;;;1.02;0.63;;;16.10;44.30;15.30;101588.00;;;;6210850;23;20271;-68
2022/04/11 00:11:37;;;;;;;0.68;0.50;;;16.10;44.20;15.30;101582.00;;;;6209667;23;20031;-67
2022/04/11 00:14:26;;;;;;;0.80;0.65;;;16.10;44.20;15.30;101589.00;;;;6210998;23;20312;-68
2022/04/11 00:17:13;;;;;;;2.08;0.60;;;16.10;44.20;15.30;101585.00;;;;6208410;23;20264;-68
2022/04/11 00:19:59;;;;;;;0.93;0.57;;;16.10;44.30;15.30;101580.00;;;;6210317;23;20023;-68
2022/04/11 00:22:45;;;;;;;2.15;0.80;;;16.10;44.30;15.30;101580.00;;;;6212586;23;20083;-68
2022/04/11 00:25:31;;;;;;;3.00;0.68;;;16.10;44.30;15.30;101577.00;;;;6213363;23;20019;-68
2022/04/11 00:28:17;;;;;;;1.80;0.80;;;16.10;44.20;15.30;101578.00;;;;6213979;23;20023;-68
2022/04/11 00:31:03;;;;;;;1.27;0.85;;;16.10;44.30;15.30;101591.00;;;;6213252;23;20058;-68
2022/04/11 00:33:49;;;;;;;1.92;0.85;;;16.10;44.30;15.30;101583.00;;;;6212190;23;20465;-67
2022/04/11 00:36:35;;;;;;;2.53;0.93;;;16.10;44.30;15.30;101577.00;;;;6212109;23;20079;-68
2022/04/11 00:39:21;;;;;;;1.50;0.75;;;16.10;44.20;15.30;101576.00;;;;6212987;23;20021;-68
2022/04/11 00:42:10;;;;;;;0.90;0.73;;;16.00;44.20;15.20;101577.00;;;;6211873;23;20035;-67
2022/04/11 00:44:56;;;;;;;0.70;0.70;;;16.00;44.10;15.20;101572.00;;;;6211341;23;20016;-67
2022/04/11 00:47:42;;;;;;;1.27;0.75;;;16.00;44.10;15.30;101570.00;;;;6211574;23;20016;-68
2022/04/11 00:50:28;;;;;;;1.42;0.98;;;16.00;44.10;15.30;101567.00;;;;6212446;23;20020;-67
2022/04/11 00:53:14;;;;;;;2.03;0.90;;;16.00;44.10;15.30;101573.00;;;;6209632;23;20361;-68
2022/04/11 00:56:00;;;;;;;1.65;1.00;;;16.00;44.10;15.20;101571.00;;;;6212849;23;20028;-68
2022/04/11 00:58:47;;;;;;;1.10;1.00;;;16.00;44.10;15.30;101567.00;;;;6169756;23;20059;-67
2022/04/11 01:01:33;;;;;;;0.73;0.73;;;16.00;44.10;15.30;101563.00;;;;6190131;23;20063;-67
2022/04/11 01:04:26;;;;;;;1.30;0.80;;;16.00;44.10;15.30;101560.00;;;;6212471;23;20027;-68
2022/04/11 01:07:12;;;;;;;2.92;0.80;;;16.00;44.10;15.20;101560.00;;;;6212054;23;20334;-68
2022/04/11 01:09:58;;;;;;;1.95;1.20;;;16.00;44.10;15.20;101568.00;;;;6212625;23;20027;-68
2022/04/11 01:12:44;;;;;;;1.27;0.85;;;16.00;44.10;15.20;101556.00;;;;6212670;23;20017;-68
2022/04/11 01:15:30;;;;;;;2.33;1.30;;;16.00;44.10;15.20;101554.00;;;;6209845;23;20016;-68
2022/04/11 01:18:16;;;;;;;1.67;1.23;;;16.00;44.10;15.20;101555.00;;;;6209840;23;20020;-68
2022/04/11 01:21:03;;;;;;;1.45;1.00;;;16.00;44.10;15.20;101550.00;;;;6212052;23;20020;-67
2022/04/11 01:23:49;;;;;;;0.77;0.70;;;16.00;44.10;15.20;101554.00;;;;6210476;23;20016;-68
2022/04/11 01:26:36;;;;;;;1.92;1.00;;;16.00;44.10;15.20;101557.00;;;;6211715;23;20446;-68
2022/04/11 01:29:22;;;;;;;2.47;1.08;;;16.00;44.10;15.20;101553.00;;;;6212023;23;20025;-68
2022/04/11 01:32:08;;;;;;;1.60;1.25;;;16.00;44.10;15.20;101549.00;;;;6210879;23;20100;-68
2022/04/11 01:34:56;;;;;;;1.40;1.05;;;16.00;44.20;15.20;101549.00;;;;6212504;23;20377;-67
2022/04/11 01:37:42;;;;;;;1.52;1.10;;;16.00;44.10;15.20;101558.00;;;;6209560;23;20025;-67
2022/04/11 01:40:28;;;;;;;2.05;1.10;;;16.00;44.10;15.20;101554.00;;;;6211468;23;20446;-68
2022/04/11 01:43:14;;;;;;;2.83;1.30;;;16.00;44.10;15.20;101547.00;;;;6211106;23;20016;-67
2022/04/11 01:46:00;;;;;;;1.40;1.13;;;16.00;44.10;15.20;101543.00;;;;6210927;23;20341;-68
2022/04/11 01:48:47;;;;;;;1.75;1.20;;;16.00;44.10;15.10;101548.00;;;;6208957;23;20020;-68
2022/04/11 01:51:33;;;;;;;2.55;1.40;;;16.00;44.10;15.10;101552.00;;;;6209070;23;20342;-68
2022/04/11 01:54:19;;;;;;;3.35;1.23;;;16.00;44.10;15.20;101552.00;;;;6212463;23;20020;-68
2022/04/11 01:57:05;;;;;;;2.75;1.70;;;15.90;44.10;15.20;101554.00;;;;6212007;23;20346;-68
2022/04/11 01:59:51;;;;;;;1.92;1.27;;;16.00;44.10;15.20;101547.00;;;;6212768;23;20078;-67
2022/04/11 02:02:37;;;;;;;1.70;1.52;;;15.70;44.00;15.20;101544.00;;;;6211537;23;20434;-68
2022/04/11 02:05:23;;;;;;;2.10;1.33;;;15.90;44.10;15.20;101543.00;;;;6211787;23;20013;-68
2022/04/11 02:08:10;;;;;;;1.48;1.35;;;15.90;44.00;15.20;101549.00;;;;6210284;23;20021;-67
2022/04/11 02:10:56;;;;;;;4.30;1.30;;;15.90;44.10;15.20;101544.00;;;;6211594;23;20070;-68
2022/04/11 02:13:42;;;;;;;3.00;1.60;;;16.00;44.10;15.20;101540.00;;;;6211285;23;20063;-68
2022/04/11 02:16:28;;;;;;;1.90;1.40;;;15.90;44.00;15.20;101529.00;;;;6211119;23;20424;-68
2022/04/11 02:19:14;;;;;;;1.92;1.33;;;16.00;44.00;15.20;101536.00;;;;6212037;23;20020;-68
2022/04/11 02:22:00;;;;;;;2.05;1.55;;;15.90;44.00;15.20;101532.00;;;;6210902;23;20019;-67
2022/04/11 02:24:46;;;;;;;1.92;1.50;;;15.90;44.00;15.20;101533.00;;;;6210692;23;20443;-68
2022/04/11 02:27:32;;;;;;;1.90;1.67;;;15.90;44.00;15.20;101534.00;;;;6211221;23;20157;-68
2022/04/11 02:30:18;;;;;;;2.17;1.60;;;16.00;44.00;15.20;101526.00;;;;6210997;23;20442;-68
2022/04/11 02:33:04;;;;;;;2.90;1.80;;;15.90;43.90;15.20;101520.00;;;;6210808;23;20024;-68
2022/04/11 02:35:50;;;;;;;2.40;1.50;;;16.00;44.00;15.20;101540.00;;;;6209464;23;20327;-68
2022/04/11 02:38:37;;;;;;;2.17;1.52;;;16.00;44.00;15.20;101529.00;;;;6209096;23;20020;-68
2022/04/11 02:41:23;;;;;;;3.97;2.08;;;16.00;44.00;15.20;101527.00;;;;6210213;23;20142;-68
2022/04/11 02:44:09;;;;;;;3.45;1.52;;;16.00;44.00;15.10;101521.00;;;;6210958;23;20435;-68
2022/04/11 02:46:55;;;;;;;2.03;1.50;;;16.00;44.00;15.10;101514.00;;;;6210985;23;20012;-68
2022/04/11 02:49:41;;;;;;;1.85;1.48;;;16.00;43.90;15.10;101514.00;;;;6211330;23;20124;-68
2022/04/11 02:52:29;;;;;;;4.13;1.88;;;15.90;43.90;15.10;101521.00;;;;6210266;23;20024;-68
2022/04/11 02:55:15;;;;;;;3.83;1.98;;;15.90;43.90;15.10;101518.00;;;;6211490;23;20039;-68
2022/04/11 02:58:01;;;;;;;3.75;1.55;;;15.90;43.90;15.10;101520.00;;;;6189104;23;20020;-68
2022/04/11 03:00:47;;;;;;;2.10;1.67;;;15.90;44.00;15.10;101517.00;;;;6210798;23;20107;-68
2022/04/11 03:03:33;;;;;;;2.33;1.65;;;15.90;43.90;15.10;101526.00;;;;6210593;23;20020;-68
2022/04/11 03:06:19;;;;;;;3.40;1.73;;;15.90;43.90;15.10;101533.00;;;;6208671;23;20017;-68
2022/04/11 03:09:05;;;;;;;3.20;1.70;;;15.90;43.90;15.10;101539.00;;;;6211262;23;20012;-68
2022/04/11 03:11:51;;;;;;;2.97;1.92;;;15.90;43.90;15.10;101525.00;;;;6210008;23;20181;-67
2022/04/11 03:14:37;;;;;;;3.63;1.73;;;15.90;43.90;15.10;101536.00;;;;6210707;23;20019;-67
2022/04/11 03:17:23;;;;;;;1.95;1.73;;;15.90;43.90;15.10;101541.00;;;;6210377;23;20012;-68
2022/04/11 03:20:10;;;;;;;3.47;1.90;;;15.90;43.90;15.10;101540.00;;;;6211023;23;20027;-68
2022/04/11 03:22:58;;;;;;;2.45;1.88;;;15.90;43.90;15.10;101540.00;;;;6212097;23;20096;-67
2022/04/11 03:25:44;;;;;;;2.80;1.88;;;15.90;43.90;15.10;101533.00;;;;6211298;23;20039;-68
2022/04/11 03:28:30;;;;;;;4.22;1.90;;;15.90;43.80;15.10;101542.00;;;;6210770;23;20019;-68
2022/04/11 03:31:16;;;;;;;2.25;1.90;;;15.90;43.80;15.10;101545.00;;;;6209993;23;20021;-68
2022/04/11 03:34:02;;;;;;;2.97;1.90;;;15.90;43.80;15.10;101540.00;;;;6211439;23;20086;-68
2022/04/11 03:36:48;;;;;;;2.33;2.00;;;15.90;43.80;15.10;101548.00;;;;6209044;23;20023;-68
2022/04/11 03:39:34;;;;;;;2.65;1.73;;;15.90;43.80;15.10;101549.00;;;;6210929;23;20024;-68
2022/04/11 03:42:20;;;;;;;4.53;2.08;;;15.90;43.80;15.10;101535.00;;;;6209920;23;20020;-68
2022/04/11 03:45:10;;;;;;;4.45;2.92;;;16.00;43.80;15.10;101533.00;;;;6211034;23;20514;-68
2022/04/11 03:47:56;;;;;;;4.80;2.03;;;15.90;43.80;15.10;101525.00;;;;6211456;23;20012;-68
2022/04/11 03:50:42;;;;;;;3.75;2.03;;;15.90;43.70;15.10;101524.00;;;;6206422;23;20027;-68
2022/04/11 03:53:29;;;;;;;3.83;2.00;;;15.90;43.70;15.10;101525.00;;;;6210212;23;20442;-68
2022/04/11 03:56:17;;;;;;;4.05;2.03;;;15.90;43.70;15.10;101529.00;;;;6210065;23;20016;-67
2022/04/11 03:59:03;;;;;;;2.95;1.67;;;15.90;43.80;15.10;101517.00;;;;6211608;23;20016;-68
2022/04/11 04:01:49;;;;;;;3.40;1.63;;;15.90;43.80;15.00;101525.00;;;;6209980;23;20443;-67
2022/04/11 04:04:35;;;;;;;3.25;2.13;;;15.90;43.80;15.00;101519.00;;;;6210619;23;20036;-68
2022/04/11 04:07:21;;;;;;;3.08;2.17;;;15.90;43.80;15.00;101517.00;;;;6210156;23;20013;-68
2022/04/11 04:10:07;;;;;;;3.78;1.92;;;15.90;43.80;15.00;101523.00;;;;6210508;23;20047;-68
2022/04/11 04:12:58;;;;;;;3.55;1.90;;;15.90;43.80;15.00;101520.00;;;;6186997;23;20374;-67
2022/04/11 04:15:44;;;;;;;2.78;2.08;;;15.90;43.80;15.00;101521.00;;;;6209250;23;20020;-68
2022/04/11 04:18:30;;;;;;;2.17;1.92;;;15.90;43.80;15.00;101521.00;;;;6210373;23;20044;-67
2022/04/11 04:21:18;;;;;;;2.60;1.90;;;15.90;43.80;15.00;101521.00;;;;6210516;23;20022;-68
2022/04/11 04:24:05;;;;;;;3.13;1.88;;;15.80;43.80;15.00;101523.00;;;;6210010;23;20039;-68
2022/04/11 04:26:51;;;;;;;3.15;2.00;;;15.80;43.80;15.00;101524.00;;;;6211183;23;20027;-68
2022/04/11 04:29:37;;;;;;;4.35;2.08;;;15.80;43.80;15.00;101515.00;;;;6211565;23;20031;-68
2022/04/11 04:32:23;;;;;;;3.33;2.20;;;15.80;43.70;15.00;101521.00;;;;6208373;23;20016;-68
2022/04/11 04:35:09;;;;;;;3.65;2.30;;;15.80;43.80;15.00;101525.00;;;;6210474;23;20024;-68
2022/04/11 04:37:55;;;;;;;2.95;1.92;;;15.80;43.70;15.00;101524.00;;;;6210735;23;20505;-68
2022/04/11 04:40:41;;;;;;;4.10;2.30;;;15.80;43.70;15.00;101521.00;;;;6210151;23;20031;-68
2022/04/11 04:43:27;;;;;;;4.03;2.08;;;15.80;43.70;15.00;101524.00;;;;6210442;23;20036;-68
2022/04/11 04:46:13;;;;;;;4.03;2.20;;;15.90;43.80;15.00;101528.00;;;;6209772;23;20442;-67
2022/04/11 04:48:59;;;;;;;4.07;2.65;;;15.80;43.70;15.00;101534.00;;;;6210585;23;20013;-68
2022/04/11 04:51:45;;;;;;;2.42;2.00;;;15.80;43.70;15.00;101531.00;;;;6207899;23;20398;-68
2022/04/11 04:54:31;;;;;;;3.63;1.92;;;15.80;43.70;15.00;101532.00;;;;6209781;23;20525;-67
2022/04/11 04:57:17;;;;;;;4.32;2.25;;;15.80;43.60;15.00;101537.00;;;;6209916;23;20021;-68
2022/04/11 05:00:04;;;;;;;2.97;2.00;;;15.90;43.70;15.00;101535.00;;;;6209292;23;20353;-68
2022/04/11 05:02:50;;;;;;;3.97;2.95;;;15.80;43.70;15.00;101542.00;;;;6208132;23;20098;-68
2022/04/11 05:05:36;;;;;;;2.70;2.22;;;15.80;43.60;15.00;101544.00;;;;6210531;23;20024;-68
2022/04/11 05:08:22;;;;;;;3.38;2.08;;;15.80;43.60;15.00;101540.00;;;;6211412;23;20013;-68
2022/04/11 05:11:08;;;;;;;2.33;2.13;;;15.80;43.60;15.00;101548.00;;;;6209891;23;20353;-68
2022/04/11 05:13:54;;;;;;;3.38;2.33;;;15.80;43.60;15.00;101558.00;;;;6211242;23;20023;-68
2022/04/11 05:16:40;;;;;;;2.83;2.10;;;15.80;43.60;15.00;101550.00;;;;6210974;23;20039;-68
2022/04/11 05:19:27;;;;;;;3.15;1.95;;;15.80;43.60;15.00;101547.00;;;;6211913;23;20020;-67
2022/04/11 05:22:13;;;;;;;3.25;2.05;;;15.80;43.60;15.00;101535.00;;;;6211105;23;20327;-68
2022/04/11 05:24:59;;;;;;;2.10;1.77;;;15.80;43.60;15.00;101536.00;;;;6212020;23;20019;-67
2022/04/11 05:27:45;;;;;;;2.58;2.13;;;15.80;43.60;15.00;101538.00;;;;6210683;23;20021;-68
2022/04/11 05:30:35;;;;;;;5.10;2.33;;;15.80;43.60;14.90;101533.00;;;;6211465;23;20036;-67
2022/04/11 05:33:21;;;;;;;3.35;2.42;;;15.80;43.60;14.90;101537.00;;;;6210502;23;20017;-68
2022/04/11 05:36:07;;;;;;;2.30;2.03;;;15.80;43.60;14.90;101535.00;;;;6211608;23;20055;-68
2022/04/11 05:38:53;;;;;;;2.92;2.15;;;15.80;43.60;15.00;101541.00;;;;6211391;23;20020;-68
2022/04/11 05:41:39;;;;;;;3.85;2.72;;;15.80;43.60;15.00;101548.00;;;;6211427;23;20361;-68
2022/04/11 05:44:25;;;;;;;3.08;2.17;;;15.80;43.60;15.00;101543.00;;;;6209446;23;20023;-68
2022/04/11 05:47:12;;;;;;;3.90;2.42;;;15.80;43.60;15.00;101544.00;;;;6209183;23;20017;-68
2022/04/11 05:49:58;;;;;;;2.95;2.35;;;15.90;43.70;15.00;101547.00;;;;6210521;23;20059;-67
2022/04/11 05:52:44;;;;;;;2.97;1.95;;;15.80;43.60;15.00;101548.00;;;;6211798;23;20350;-67
2022/04/11 05:55:31;;;;;;;3.67;2.28;;;15.80;43.60;15.00;101555.00;;;;6211703;23;20040;-68
2022/04/11 05:58:17;;;;;;;2.97;1.88;;;15.80;43.60;15.00;101543.00;;;;6211450;23;20016;-67
2022/04/11 06:01:03;;;;;;;4.35;1.95;;;15.80;43.50;15.00;101547.00;;;;6209123;23;20027;-67
2022/04/11 06:03:49;;;;;;;2.47;1.73;;;15.80;43.50;15.00;101548.00;;;;6212129;23;20016;-68
2022/04/11 06:06:36;;;;;;;3.58;2.30;;;15.80;43.50;15.00;101549.00;;;;6212138;23;20020;-68
2022/04/11 06:09:22;;;;;;;3.45;1.73;;;15.90;43.50;15.00;101549.00;;;;6211288;23;20023;-67
2022/04/11 06:12:10;;;;;;;4.40;2.40;;;15.90;43.50;15.00;101544.00;;;;6210480;23;20012;-67
2022/04/11 06:14:56;;;;;;;3.03;1.83;;;15.90;43.50;15.00;101541.00;;;;6211582;23;20078;-68
2022/04/11 06:17:42;;;;;;;2.35;1.92;;;15.90;43.50;15.00;101534.00;;;;6209862;23;20013;-67
2022/04/11 06:20:28;;;;;;;3.65;2.28;;;15.90;43.50;15.00;101539.00;;;;6211344;23;20016;-67
2022/04/11 06:23:14;;;;;;;3.85;2.17;;;15.90;43.50;15.00;101542.00;;;;6211243;23;20319;-67
2022/04/11 06:26:00;;;;;;;2.45;1.95;;;15.90;43.50;15.00;101530.00;;;;6211789;23;20091;-68
2022/04/11 06:28:47;;;;;;;2.97;1.70;;;15.90;43.50;15.00;101530.00;;;;6211474;23;20009;-68
2022/04/11 06:31:33;;;;;;;2.03;1.58;;;15.90;43.50;15.00;101536.00;;;;6210279;23;20095;-68
2022/04/11 06:34:19;;;;;;;3.08;1.90;;;15.90;43.40;15.00;101538.00;;;;6211083;23;20027;-68
2022/04/11 06:37:05;;;;;;;2.38;1.75;;;15.90;43.50;15.00;101531.00;;;;6210657;23;20465;-68
2022/04/11 06:39:51;;;;;;;3.83;2.15;;;15.90;43.50;15.00;101527.00;;;;6211506;23;20023;-68
2022/04/11 06:42:37;;;;;;;3.60;1.50;;;15.90;43.50;15.00;101535.00;;;;6208644;23;20450;-68
2022/04/11 06:45:23;;;;;;;2.45;1.90;;;15.90;43.50;15.00;101545.00;;;;6210453;23;20017;-68
2022/04/11 06:48:10;;;;;;;3.45;1.80;;;15.90;43.50;15.00;101538.00;;;;6211219;23;20071;-68
2022/04/11 06:50:56;;;;;;;4.38;1.77;;;15.90;43.40;15.00;101541.00;;;;6211187;23;20465;-68
2022/04/11 06:53:42;;;;;;;2.95;1.80;;;15.90;43.50;15.00;101528.00;;;;6210971;23;20046;-67
2022/04/11 06:56:28;;;;;;;5.18;2.10;;;15.90;43.40;15.00;101533.00;;;;6210899;23;20020;-67
2022/04/11 06:59:15;;;;;;;2.90;1.80;;;15.90;43.40;15.00;101536.00;;;;6210879;23;20016;-67
2022/04/11 07:02:01;;;;;;;3.45;1.90;;;15.90;43.40;15.00;101534.00;;;;6209244;23;20025;-67
2022/04/11 07:04:47;;;;;;;2.78;1.73;;;15.90;43.40;15.00;101534.00;;;;6210356;23;20474;-67
2022/04/11 07:07:37;;;;;;;2.58;1.67;;;15.90;43.40;15.10;101531.00;;;;6209740;23;20096;-68
2022/04/11 07:10:23;;;;;;;3.15;1.60;;;15.90;43.40;15.10;101528.00;;;;6209799;23;20012;-68
2022/04/11 07:13:09;;;;;;;2.08;1.55;;;15.90;43.40;15.10;101528.00;;;;6208985;23;20023;-68
2022/04/11 07:15:55;;;;;;;3.15;1.60;;;15.90;43.40;15.10;101528.00;;;;6210880;23;20323;-68
2022/04/11 07:18:41;;;;;;;3.80;2.00;;;15.90;43.30;15.10;101534.00;;;;6210309;23;20437;-68
2022/04/11 07:21:27;;;;;;;1.98;1.73;;;15.90;43.30;15.10;101534.00;;;;6210145;23;20052;-68
2022/04/11 07:24:14;;;;;;;2.85;1.80;;;15.90;43.30;15.10;101541.00;;;;6210403;23;20024;-67
2022/04/11 07:27:00;;;;;;;2.33;1.58;;;15.90;43.30;15.00;101531.00;;;;6207743;23;20020;-67
2022/04/11 07:29:46;;;;;;;3.78;1.63;;;15.90;43.30;15.10;101542.00;;;;6211065;23;20047;-68
2022/04/11 07:32:32;;;;;;;3.97;1.70;;;15.90;43.30;15.10;101540.00;;;;6209509;23;20021;-68
2022/04/11 07:35:18;;;;;;;2.75;1.70;;;16.00;43.30;15.10;101538.00;;;;6211242;23;20028;-68
2022/04/11 07:38:04;;;;;;;2.97;1.60;;;16.00;43.30;15.10;101535.00;;;;6210226;23;20016;-68
2022/04/11 07:40:50;;;;;;;1.98;1.60;;;16.00;43.30;15.10;101539.00;;;;6209271;23;20051;-68
2022/04/11 07:43:36;;;;;;;2.65;1.75;;;15.90;43.20;15.10;101543.00;;;;6211060;23;20019;-68
2022/04/11 07:46:22;;;;;;;2.55;1.65;;;16.00;43.30;15.10;101549.00;;;;6209043;23;20017;-68
2022/04/11 07:49:09;;;;;;;3.28;1.90;;;16.00;43.30;15.10;101539.00;;;;6210727;23;20017;-68
2022/04/11 07:51:55;;;;;;;3.10;1.83;;;16.00;43.30;15.10;101541.00;;;;6209644;23;20024;-68
2022/04/11 07:54:41;;;;;;;3.40;1.38;;;16.00;43.30;15.10;101536.00;;;;6210016;23;20019;-68
2022/04/11 07:57:28;;;;;;;2.95;1.50;;;16.00;43.30;15.10;101533.00;;;;6208881;23;20505;-68
2022/04/11 08:00:15;;;;;;;3.00;1.75;;;16.00;43.30;15.10;101529.00;;;;6210441;23;20458;-68
2022/04/11 08:03:01;;;;;;;1.90;1.65;;;16.00;43.30;15.10;101538.00;;;;6209474;23;20501;-68
2022/04/11 08:05:47;;;;;;;4.13;1.85;;;16.00;43.20;15.10;101546.00;;;;6210274;23;20013;-68
2022/04/11 08:08:33;;;;;;;4.22;1.98;;;16.00;43.20;15.10;101545.00;;;;6210368;23;20389;-68
2022/04/11 08:11:20;;;;;;;3.22;2.17;;;16.00;43.20;15.10;101549.00;;;;6209615;23;20023;-68
2022/04/11 08:14:06;;;;;;;2.50;1.80;;;16.00;43.20;15.10;101545.00;;;;6208108;23;20472;-68
2022/04/11 08:16:52;;;;;;;2.42;1.40;;;16.00;43.20;15.10;101539.00;;;;6208069;23;20032;-67
2022/04/11 08:19:38;;;;;;;4.07;1.63;;;16.00;43.10;15.10;101546.00;;;;6210497;23;20095;-68
2022/04/11 08:22:24;;;;;;;2.42;1.50;;;16.00;43.20;15.10;101543.00;;;;6207380;23;20028;-67
2022/04/11 08:25:10;;;;;;;5.57;1.67;;;16.00;43.20;15.10;101542.00;;;;6209262;23;20020;-67
2022/04/11 08:27:56;;;;;;;2.78;1.77;;;16.00;43.20;15.10;101533.00;;;;6208260;23;20016;-67
2022/04/11 08:30:42;;;;;;;2.47;1.80;;;16.00;43.20;15.10;101542.00;;;;6209263;23;20020;-68
2022/04/11 08:33:29;;;;;;;2.05;1.60;;;16.00;43.20;15.10;101533.00;;;;6210514;23;20020;-68
2022/04/11 08:36:15;;;;;;;3.85;1.92;;;16.00;43.20;15.10;101538.00;;;;6210469;23;20248;-67
2022/04/11 08:39:01;;;;;;;2.25;1.55;;;16.00;43.20;15.10;101534.00;;;;6210162;23;20083;-68
2022/04/11 08:41:47;;;;;;;3.00;1.80;;;16.00;43.20;15.10;101528.00;;;;6207530;23;20020;-68
2022/04/11 08:44:33;;;;;;;4.10;1.75;;;16.00;43.20;15.10;101523.00;;;;6212515;23;20341;-67
2022/04/11 08:47:19;;;;;;;2.80;1.40;;;16.10;43.20;15.10;101524.00;;;;6189806;23;20012;-67
2022/04/11 08:50:06;;;;;;;5.30;1.63;;;16.00;43.10;15.20;101517.00;;;;6189662;23;20016;-67
2022/04/11 08:52:54;;;;;;;3.53;1.40;;;16.10;43.20;15.20;101513.00;;;;6211438;23;20047;-67
2022/04/11 08:55:40;;;;;;;2.60;1.40;;;16.10;43.10;15.20;101517.00;;;;6189150;23;20075;-68
2022/04/11 08:58:27;;;;;;;3.90;1.52;;;16.10;43.20;15.10;101510.00;;;;6210412;23;20346;-67
2022/04/11 09:01:13;;;;;;;2.38;1.70;;;16.10;43.10;15.20;101512.00;;;;6210369;23;20048;-68
2022/04/11 09:03:59;;;;;;;3.17;1.60;;;16.10;43.10;15.20;101510.00;;;;6211408;23;20038;-67
2022/04/11 09:06:59;;;;;;;4.20;1.80;;;16.10;43.20;15.20;101510.00;;;;6211911;23;20342;-67
2022/04/11 09:09:45;;;;;;;3.22;1.63;;;16.10;43.10;15.20;101509.00;;;;6192483;23;20051;-67
2022/04/11 09:12:31;;;;;;;2.67;1.58;;;16.10;43.10;15.20;101509.00;;;;6211822;23;20090;-67
2022/04/11 09:15:18;;;;;;;3.65;1.67;;;16.10;43.10;15.20;101512.00;;;;6169853;23;20352;-67
2022/04/11 09:18:04;;;;;;;3.60;1.90;;;16.10;43.10;15.20;101508.00;;;;6189997;23;20023;-67
2022/04/11 09:20:51;;;;;;;3.63;2.15;;;16.10;43.10;15.20;101504.00;;;;6189437;23;20469;-67
2022/04/11 09:23:37;;;;;;;2.53;1.80;;;16.10;43.00;15.20;101498.00;;;;6191257;23;20489;-67
2022/04/11 09:26:23;;;;;;;2.28;1.60;;;16.10;43.00;15.20;101504.00;;;;6209869;23;20012;-68
2022/04/11 09:29:10;;;;;;;2.85;1.70;;;16.20;43.10;15.20;101507.00;;;;6190278;23;20082;-67
2022/04/11 09:32:05;;;;;;;4.10;1.58;;;16.10;43.10;15.20;101500.00;;;;6210390;23;20020;-67
2022/04/11 09:34:54;;;;;;;2.60;1.70;;;16.10;43.00;15.20;101502.00;;;;6167899;23;20021;-68
2022/04/11 09:37:42;;;;;;;3.50;1.67;;;16.20;43.00;15.20;101510.00;;;;6211358;23;20020;-67
2022/04/11 09:40:28;;;;;;;2.05;1.27;;;16.10;43.00;15.20;101506.00;;;;6209460;23;20099;-68
2022/04/11 09:43:18;;;;;;;2.33;1.58;;;16.20;43.00;15.20;101497.00;;;;6210957;23;20071;-68
2022/04/11 09:46:04;;;;;;;3.58;1.80;;;16.10;43.00;15.20;101502.00;;;;6190904;23;20293;-68
2022/04/11 09:48:52;;;;;;;2.30;1.73;;;16.20;43.10;15.20;101492.00;;;;6212503;23;20415;-68
2022/04/11 09:52:04;;;;;;;3.30;1.83;;;16.20;43.10;15.20;101488.00;;;;6189568;23;20023;-68
2022/04/11 09:54:50;;;;;;;3.25;1.70;;;16.20;43.00;15.20;101485.00;;;;6212432;23;20017;-68
2022/04/11 09:57:36;;;;;;;2.55;1.60;;;16.20;43.10;15.30;101494.00;;;;6210164;23;20035;-68
2022/04/11 10:00:23;;;;;;;3.17;1.45;;;16.20;43.10;15.30;101486.00;;;;6190200;23;20021;-68
2022/04/11 10:03:09;;;;;;;2.53;1.45;;;16.20;43.20;15.20;101482.00;;;;6188781;23;20394;-67
2022/04/11 10:05:55;;;;;;;1.90;1.52;;;16.20;43.20;15.30;101485.00;;;;6211212;23;20248;-68
2022/04/11 10:08:41;;;;;;;3.00;1.95;;;16.20;43.20;15.30;101482.00;;;;6189031;23;20479;-68
2022/04/11 10:11:28;;;;;;;2.25;1.83;;;16.20;43.10;15.30;101473.00;;;;6188786;23;20016;-68
2022/04/11 10:14:23;;;;;;;1.80;1.20;;;16.20;43.10;15.30;101463.00;;;;6166916;23;20021;-68
2022/04/11 10:17:09;;;;;;;2.08;1.58;;;16.20;43.20;15.30;101468.00;;;;6211062;23;20039;-68
2022/04/11 10:19:55;;;;;;;3.40;1.55;;;16.20;43.10;15.30;101464.00;;;;6211352;23;20039;-68
2022/04/11 10:22:51;;;;;;;2.42;1.65;;;16.30;43.10;15.30;101467.00;;;;6210393;23;20029;-68
2022/04/11 10:25:46;;;;;;;1.92;1.60;;;16.30;43.20;15.30;101462.00;;;;6190537;23;20016;-68
2022/04/11 10:28:32;;;;;;;2.72;1.58;;;16.20;43.10;15.30;101450.00;;;;6190004;23;20378;-68
2022/04/11 10:31:18;;;;;;;2.92;1.75;;;16.30;43.10;15.30;101454.00;;;;6168383;23;20020;-68
2022/04/11 10:34:04;;;;;;;3.13;1.90;;;16.30;43.00;15.30;101447.00;;;;6209885;23;20509;-68
2022/04/11 10:36:57;;;;;;;2.20;1.70;;;16.30;43.00;15.30;101443.00;;;;6209663;23;20427;-67
2022/04/11 10:39:47;;;;;;;3.28;1.70;;;16.30;43.00;15.30;101445.00;;;;6210885;23;20123;-67
2022/04/11 10:42:33;;;;;;;2.28;1.73;;;16.30;42.90;15.30;101438.00;;;;6209331;23;20465;-67
2022/04/11 10:45:31;;;;;;;2.67;1.90;;;16.30;42.90;15.30;101440.00;;;;6209197;23;20013;-67
2022/04/11 10:48:18;;;;;;;2.22;1.80;;;16.30;42.80;15.40;101440.00;;;;6211433;23;20103;-67
2022/04/11 10:51:14;;;;;;;2.95;1.77;;;16.40;42.90;15.40;101433.00;;;;6209127;23;20138;-67
2022/04/11 10:54:19;;;;;;;3.55;2.13;;;16.40;42.90;15.40;101439.00;;;;6191223;23;20024;-67
2022/04/11 10:57:05;;;;;;;4.50;2.10;;;16.40;42.80;15.40;101426.00;;;;6208787;23;20016;-67
2022/04/11 11:00:13;;;;;;;3.85;2.10;;;16.40;42.80;15.40;101425.00;;;;6188535;23;20048;-67
2022/04/11 11:02:59;;;;;;;3.40;2.23;;;16.40;42.60;15.40;101428.00;;;;6211381;23;20048;-67
2022/04/11 11:05:50;;;;;;;2.65;2.28;;;16.40;42.60;15.40;101419.00;;;;6211193;23;20013;-67
2022/04/11 11:08:36;;;;;;;4.80;2.50;;;16.40;42.60;15.40;101424.00;;;;6209562;23;20017;-67
2022/04/11 11:11:27;;;;;;;3.30;2.42;;;16.40;42.60;15.40;101425.00;;;;6209592;23;20110;-67
2022/04/11 11:14:39;;;;;;;4.22;2.47;;;16.40;42.40;15.40;101414.00;;;;6190527;23;20091;-67
2022/04/11 11:17:57;;;;;;;5.50;2.40;;;16.40;42.40;15.40;101413.00;;;;6208272;23;20054;-67
2022/04/11 11:20:56;;;;;;;2.80;2.50;;;16.40;42.40;15.40;101413.00;;;;6208543;23;20381;-68
2022/04/11 11:24:08;;;;;;;5.15;3.15;;;16.40;42.30;15.40;101403.00;;;;6209397;23;20017;-68
2022/04/11 11:26:57;;;;;;;9.27;2.95;;;16.40;42.30;15.40;101405.00;;;;6211402;23;20441;-67
2022/04/11 11:29:44;;;;;;;3.97;2.70;;;16.50;42.10;15.40;101398.00;;;;6208608;23;20013;-67
2022/04/11 11:32:30;;;;;;;4.22;3.22;;;16.50;42.20;15.40;101390.00;;;;6210231;23;20484;-67
2022/04/11 11:35:16;;;;;;;3.60;2.50;;;16.50;42.30;15.40;101385.00;;;;6210914;23;20212;-67
2022/04/11 11:38:05;;;;;;;4.60;3.22;;;16.50;42.30;15.40;101383.00;;;;6186998;23;20023;-67
2022/04/11 11:40:59;;;;;;;2.75;2.33;;;16.50;42.30;15.50;101380.00;;;;6209982;23;20028;-67
2022/04/11 11:43:45;;;;;;;5.20;2.35;;;16.50;42.30;15.50;101382.00;;;;6211673;23;20016;-67
2022/04/11 11:46:31;;;;;;;3.33;2.42;;;16.50;42.40;15.50;101380.00;;;;6186808;23;20016;-67
2022/04/11 11:49:18;;;;;;;4.00;2.50;;;16.50;42.40;15.50;101377.00;;;;6209244;23;20013;-67
2022/04/11 11:52:17;;;;;;;4.00;1.80;;;16.50;42.30;15.50;101382.00;;;;6188876;23;20052;-67
2022/04/11 11:55:04;;;;;;;2.75;2.15;;;16.50;42.40;15.50;101380.00;;;;6191692;23;20062;-67
2022/04/11 11:58:04;;;;;;;2.45;1.95;;;16.60;42.50;15.50;101373.00;;;;6210914;23;20039;-67
2022/04/11 12:00:50;;;;;;;4.15;2.05;;;16.60;42.40;15.50;101374.00;;;;6211118;23;20020;-67
2022/04/11 12:06:42;;;;;;;3.55;2.00;;;16.60;42.40;15.50;101366.00;;;;6209466;23;20016;-67
2022/04/11 12:09:38;;;;;;;3.63;1.90;;;16.60;42.40;15.60;101356.00;;;;6208855;23;20020;-67
2022/04/11 12:12:24;;;;;;;1.98;1.65;;;16.60;42.40;15.60;101356.00;;;;6207218;23;20023;-67
2022/04/11 12:15:11;;;;;;;2.72;1.65;;;16.60;42.40;15.60;101360.00;;;;6207909;23;20091;-67
2022/04/11 12:18:05;;;;;;;3.38;2.10;;;16.70;42.50;15.60;101361.00;;;;6210267;23;20013;-67